Time;durP1;ratioP1;P1;durP2;ratioP2;P2;SDS_P1;SDS_P2;PMS_P1;PMS_P2;Temp;Humidity;BMP_temperature;BMP_pressure;BME280_temperature;BME280_humidity;BME280_pressure;Samples;Min_cycle;Max_cycle;Signal;HPM_P1;HPM_P2
2021/04/24 00:00:12;;;;;;;14.43;8.87;;;;;;;;;;5129198;27;20050;-50
2021/04/24 00:02:40;;;;;;;13.93;8.10;;;;;;;;;;5111735;27;20024;-52
2021/04/24 00:05:08;;;;;;;15.23;8.77;;;;;;;;;;5132692;27;20382;-52
2021/04/24 00:07:33;;;;;;;15.80;8.97;;;;;;;;;;5133628;27;20031;-52
2021/04/24 00:09:58;;;;;;;16.17;8.70;;;;;;;;;;5134182;27;20038;-53
2021/04/24 00:12:23;;;;;;;18.07;9.17;;;;;;;;;;5130488;27;20026;-51
2021/04/24 00:14:49;;;;;;;15.63;9.00;;;;;;;;;;5122982;27;20420;-53
2021/04/24 00:17:14;;;;;;;18.23;8.80;;;;;;;;;;5134428;27;20436;-53
2021/04/24 00:19:40;;;;;;;16.40;8.87;;;;;;;;;;5117574;27;20351;-51
2021/04/24 00:22:06;;;;;;;14.90;8.60;;;;;;;;;;5111325;27;20061;-52
2021/04/24 00:24:31;;;;;;;12.63;8.33;;;;;;;;;;5129211;27;20054;-51
2021/04/24 00:26:56;;;;;;;16.37;8.90;;;;;;;;;;5132899;27;20095;-50
2021/04/24 00:29:21;;;;;;;14.67;8.10;;;;;;;;;;5116905;27;20023;-50
2021/04/24 00:31:46;;;;;;;15.70;8.43;;;;;;;;;;5115162;27;20019;-51
2021/04/24 00:34:12;;;;;;;18.40;9.67;;;;;;;;;;5125578;27;20024;-52
2021/04/24 00:36:37;;;;;;;16.00;9.13;;;;;;;;;;5126868;27;20015;-49
2021/04/24 00:39:03;;;;;;;14.07;8.90;;;;;;;;;;5127494;27;20019;-49
2021/04/24 00:41:28;;;;;;;14.10;8.77;;;;;;;;;;5115356;27;20030;-53
2021/04/24 00:43:53;;;;;;;16.23;8.50;;;;;;;;;;5128210;27;20455;-50
2021/04/24 00:46:18;;;;;;;14.17;8.13;;;;;;;;;;5133944;27;20049;-51
2021/04/24 00:48:44;;;;;;;15.10;9.30;;;;;;;;;;5134241;27;20114;-51
2021/04/24 00:51:09;;;;;;;15.03;8.83;;;;;;;;;;5117804;27;20030;-50
2021/04/24 00:53:35;;;;;;;16.23;9.00;;;;;;;;;;5126786;27;20058;-50
2021/04/24 00:56:01;;;;;;;16.17;8.53;;;;;;;;;;5122692;27;20478;-53
2021/04/24 00:58:27;;;;;;;14.53;8.43;;;;;;;;;;5123679;27;20044;-52
2021/04/24 01:00:52;;;;;;;17.60;9.10;;;;;;;;;;5125100;27;20496;-50
2021/04/24 01:03:18;;;;;;;17.23;8.80;;;;;;;;;;5119696;27;20023;-51
2021/04/24 01:05:43;;;;;;;14.67;8.17;;;;;;;;;;5132860;27;20058;-51
2021/04/24 01:08:09;;;;;;;17.33;8.93;;;;;;;;;;5132675;27;20463;-53
2021/04/24 01:10:35;;;;;;;12.23;7.83;;;;;;;;;;5123569;27;20084;-48
2021/04/24 01:13:00;;;;;;;13.43;8.97;;;;;;;;;;5125551;27;20519;-53
2021/04/24 01:15:26;;;;;;;14.77;8.60;;;;;;;;;;5119375;27;20036;-53
2021/04/24 01:17:51;;;;;;;13.87;8.33;;;;;;;;;;5117164;27;20114;-49
2021/04/24 01:20:17;;;;;;;14.97;8.00;;;;;;;;;;5118483;27;20047;-53
2021/04/24 01:22:43;;;;;;;12.90;8.47;;;;;;;;;;5127911;27;20027;-51
2021/04/24 01:25:11;;;;;;;12.70;7.17;;;;;;;;;;5120311;27;20019;-51
2021/04/24 01:27:37;;;;;;;13.93;8.37;;;;;;;;;;5133639;27;20023;-52
2021/04/24 01:30:04;;;;;;;13.47;8.50;;;;;;;;;;5125403;27;20027;-49
2021/04/24 01:32:30;;;;;;;15.10;8.67;;;;;;;;;;5112268;28;20098;-51
2021/04/24 01:34:55;;;;;;;15.00;7.90;;;;;;;;;;5133027;28;20043;-50
2021/04/24 01:37:20;;;;;;;15.87;8.03;;;;;;;;;;5128244;27;20091;-53
2021/04/24 01:39:45;;;;;;;12.80;7.73;;;;;;;;;;5132414;27;20049;-52
2021/04/24 01:42:10;;;;;;;12.77;7.73;;;;;;;;;;5127443;28;20114;-54
2021/04/24 01:44:36;;;;;;;15.07;7.77;;;;;;;;;;5130644;27;20023;-52
2021/04/24 01:47:01;;;;;;;15.23;8.37;;;;;;;;;;5132515;27;20492;-52
2021/04/24 01:49:26;;;;;;;13.60;7.50;;;;;;;;;;5127130;28;20434;-49
2021/04/24 01:51:51;;;;;;;16.53;8.77;;;;;;;;;;5120084;28;20043;-49
2021/04/24 01:54:17;;;;;;;13.27;7.93;;;;;;;;;;5121826;27;20028;-50
2021/04/24 01:56:47;;;;;;;14.70;7.70;;;;;;;;;;5126289;28;20417;-49
2021/04/24 01:59:14;;;;;;;12.13;7.70;;;;;;;;;;5133156;27;20031;-49
2021/04/24 02:01:39;;;;;;;13.50;8.00;;;;;;;;;;5127838;27;20068;-51
2021/04/24 02:04:04;;;;;;;15.47;8.23;;;;;;;;;;5125041;27;20027;-53
2021/04/24 02:06:30;;;;;;;14.97;7.77;;;;;;;;;;5128891;27;20356;-52
2021/04/24 02:08:55;;;;;;;15.30;7.63;;;;;;;;;;5129845;27;20046;-50
2021/04/24 02:11:20;;;;;;;14.60;8.30;;;;;;;;;;5119801;27;20080;-51
2021/04/24 02:13:45;;;;;;;14.30;7.90;;;;;;;;;;5134204;27;20099;-53
2021/04/24 02:16:11;;;;;;;12.43;7.33;;;;;;;;;;5136351;27;20011;-53
2021/04/24 02:18:37;;;;;;;13.10;8.23;;;;;;;;;;5131357;27;20068;-54
2021/04/24 02:21:03;;;;;;;13.97;8.27;;;;;;;;;;5134610;27;20077;-53
2021/04/24 02:23:33;;;;;;;19.77;8.07;;;;;;;;;;5129023;27;20019;-47
2021/04/24 02:25:58;;;;;;;13.30;7.80;;;;;;;;;;5115953;28;20544;-55
2021/04/24 02:28:23;;;;;;;16.77;7.77;;;;;;;;;;5119515;27;20057;-51
2021/04/24 02:30:48;;;;;;;14.37;7.73;;;;;;;;;;5123584;27;20077;-53
2021/04/24 02:33:13;;;;;;;14.40;7.40;;;;;;;;;;5112294;27;20061;-50
2021/04/24 02:35:44;;;;;;;14.37;7.73;;;;;;;;;;5116073;28;20383;-52
2021/04/24 02:38:11;;;;;;;15.20;7.67;;;;;;;;;;5125309;27;20106;-52
2021/04/24 02:40:36;;;;;;;14.20;7.77;;;;;;;;;;5116368;27;20019;-53
2021/04/24 02:43:02;;;;;;;14.27;7.93;;;;;;;;;;5128962;27;20547;-51
2021/04/24 02:45:27;;;;;;;13.80;7.63;;;;;;;;;;5136628;27;20055;-52
2021/04/24 02:47:52;;;;;;;10.77;6.60;;;;;;;;;;5136306;27;20080;-52
2021/04/24 02:50:18;;;;;;;15.50;7.50;;;;;;;;;;5130628;27;20026;-50
2021/04/24 02:52:44;;;;;;;17.33;8.03;;;;;;;;;;5132779;27;20035;-53
2021/04/24 02:55:10;;;;;;;12.67;7.37;;;;;;;;;;5134990;27;20049;-49
2021/04/24 02:57:35;;;;;;;14.83;7.93;;;;;;;;;;5120493;27;20020;-51
2021/04/24 03:00:01;;;;;;;12.80;7.63;;;;;;;;;;5120609;27;20018;-53
2021/04/24 03:02:26;;;;;;;15.63;7.73;;;;;;;;;;5130789;27;20025;-50
2021/04/24 03:04:51;;;;;;;13.97;7.13;;;;;;;;;;5122219;27;20031;-51
2021/04/24 03:07:16;;;;;;;14.77;7.80;;;;;;;;;;5126398;27;20026;-53
2021/04/24 03:09:42;;;;;;;12.87;7.60;;;;;;;;;;5117709;27;20031;-51
2021/04/24 03:12:07;;;;;;;14.37;7.47;;;;;;;;;;5123761;27;20019;-52
2021/04/24 03:14:33;;;;;;;12.77;7.10;;;;;;;;;;5130921;27;20057;-51
2021/04/24 03:16:58;;;;;;;14.33;7.27;;;;;;;;;;5134455;27;20035;-52
2021/04/24 03:19:23;;;;;;;12.63;6.90;;;;;;;;;;5130940;27;20362;-53
2021/04/24 03:21:48;;;;;;;14.50;7.50;;;;;;;;;;5122966;27;20073;-51
2021/04/24 03:24:13;;;;;;;12.37;7.03;;;;;;;;;;5125114;27;20020;-51
2021/04/24 03:26:39;;;;;;;15.27;7.50;;;;;;;;;;5114907;28;20073;-52
2021/04/24 03:29:04;;;;;;;13.70;6.97;;;;;;;;;;5117656;27;20019;-51
2021/04/24 03:31:30;;;;;;;11.83;7.17;;;;;;;;;;5125159;27;20048;-49
2021/04/24 03:33:55;;;;;;;14.97;7.57;;;;;;;;;;5131695;27;20093;-53
2021/04/24 03:36:20;;;;;;;16.77;8.40;;;;;;;;;;5135325;27;20382;-52
2021/04/24 03:38:46;;;;;;;13.60;6.87;;;;;;;;;;5126293;27;20466;-54
2021/04/24 03:41:11;;;;;;;17.47;7.30;;;;;;;;;;5116159;27;20079;-51
2021/04/24 03:43:36;;;;;;;19.80;7.30;;;;;;;;;;5133376;27;20011;-50
2021/04/24 03:46:02;;;;;;;18.60;7.80;;;;;;;;;;5130581;27;20530;-53
2021/04/24 03:48:27;;;;;;;11.07;7.27;;;;;;;;;;5128509;27;20610;-53
2021/04/24 03:50:53;;;;;;;14.87;7.53;;;;;;;;;;5129830;27;20023;-52
2021/04/24 03:53:18;;;;;;;13.03;7.37;;;;;;;;;;5132130;27;20047;-49
2021/04/24 03:55:43;;;;;;;14.33;7.70;;;;;;;;;;5132068;27;20023;-51
2021/04/24 03:58:09;;;;;;;13.53;7.17;;;;;;;;;;5133856;27;20099;-54
2021/04/24 04:00:34;;;;;;;13.20;7.50;;;;;;;;;;5132603;27;20501;-49
2021/04/24 04:03:01;;;;;;;15.97;7.30;;;;;;;;;;5130924;27;20462;-52
2021/04/24 04:05:30;;;;;;;15.13;7.93;;;;;;;;;;5117998;27;20034;-48
2021/04/24 04:07:56;;;;;;;15.20;7.67;;;;;;;;;;5114231;28;20019;-52
2021/04/24 04:10:21;;;;;;;11.87;7.43;;;;;;;;;;5120170;27;20035;-50
2021/04/24 04:12:47;;;;;;;12.53;7.47;;;;;;;;;;5127393;27;20018;-53
2021/04/24 04:15:13;;;;;;;15.47;7.50;;;;;;;;;;5123216;27;20023;-50
2021/04/24 04:17:39;;;;;;;11.43;7.33;;;;;;;;;;5128565;27;20052;-50
2021/04/24 04:20:08;;;;;;;12.97;7.10;;;;;;;;;;5121310;27;20474;-55
2021/04/24 04:22:33;;;;;;;13.47;7.00;;;;;;;;;;5127111;27;20051;-51
2021/04/24 04:24:58;;;;;;;13.40;6.87;;;;;;;;;;5119448;27;20478;-52
2021/04/24 04:27:23;;;;;;;15.57;6.87;;;;;;;;;;5123099;27;20351;-53
2021/04/24 04:29:49;;;;;;;13.43;6.47;;;;;;;;;;5122259;27;20497;-52
2021/04/24 04:32:14;;;;;;;10.30;6.07;;;;;;;;;;5128326;27;20470;-48
2021/04/24 04:34:39;;;;;;;9.63;6.47;;;;;;;;;;5123813;27;20027;-51
2021/04/24 04:37:05;;;;;;;12.30;6.53;;;;;;;;;;5120936;27;20047;-49
2021/04/24 04:39:30;;;;;;;12.07;6.63;;;;;;;;;;5115567;27;20020;-48
2021/04/24 04:41:55;;;;;;;13.77;6.10;;;;;;;;;;5131028;27;20027;-50
2021/04/24 04:44:21;;;;;;;11.57;6.10;;;;;;;;;;5128371;27;20079;-52
2021/04/24 04:46:46;;;;;;;8.57;5.87;;;;;;;;;;5122404;27;20027;-49
2021/04/24 04:49:11;;;;;;;8.07;5.60;;;;;;;;;;5130861;27;20026;-49
2021/04/24 04:51:36;;;;;;;12.27;6.30;;;;;;;;;;5130105;27;20039;-55
2021/04/24 04:54:02;;;;;;;10.43;6.10;;;;;;;;;;5123878;27;20122;-50
2021/04/24 04:56:27;;;;;;;11.10;6.93;;;;;;;;;;5132820;27;20073;-50
2021/04/24 04:58:52;;;;;;;11.43;6.40;;;;;;;;;;5127540;27;20144;-52
2021/04/24 05:01:20;;;;;;;12.07;6.70;;;;;;;;;;5130189;27;20107;-52
2021/04/24 05:03:45;;;;;;;12.47;5.80;;;;;;;;;;5122418;27;20030;-54
2021/04/24 05:06:10;;;;;;;11.13;6.57;;;;;;;;;;5113169;28;20023;-51
2021/04/24 05:08:36;;;;;;;11.93;6.73;;;;;;;;;;5114702;27;20016;-53
2021/04/24 05:11:02;;;;;;;11.20;5.90;;;;;;;;;;5120833;27;20043;-52
2021/04/24 05:13:28;;;;;;;11.10;7.07;;;;;;;;;;5119326;27;20049;-54
2021/04/24 05:15:53;;;;;;;12.17;6.60;;;;;;;;;;5117850;27;20016;-50
2021/04/24 05:18:19;;;;;;;12.73;6.47;;;;;;;;;;5117812;27;20019;-51
2021/04/24 05:20:45;;;;;;;11.43;6.97;;;;;;;;;;5132296;27;20034;-52
2021/04/24 05:23:10;;;;;;;13.77;6.73;;;;;;;;;;5115786;27;20011;-52
2021/04/24 05:25:35;;;;;;;9.77;6.20;;;;;;;;;;5116754;27;20026;-53
2021/04/24 05:28:01;;;;;;;15.00;6.67;;;;;;;;;;5122549;27;20023;-52
2021/04/24 05:30:26;;;;;;;14.67;6.90;;;;;;;;;;5126530;27;20015;-51
2021/04/24 05:32:51;;;;;;;10.67;6.07;;;;;;;;;;5122818;28;20015;-55
2021/04/24 05:35:17;;;;;;;12.63;6.90;;;;;;;;;;5120872;28;20026;-51
2021/04/24 05:37:42;;;;;;;11.27;6.00;;;;;;;;;;5113353;28;20088;-46
2021/04/24 05:40:08;;;;;;;14.63;6.67;;;;;;;;;;5117315;28;20106;-52
2021/04/24 05:42:33;;;;;;;11.60;6.40;;;;;;;;;;5125001;28;20035;-52
2021/04/24 05:44:59;;;;;;;12.40;5.90;;;;;;;;;;5122669;27;20378;-51
2021/04/24 05:47:25;;;;;;;10.93;6.10;;;;;;;;;;5119897;27;20038;-50
2021/04/24 05:49:51;;;;;;;13.50;7.32;;;;;;;;;;5113059;28;20032;-53
2021/04/24 05:52:18;;;;;;;8.73;5.30;;;;;;;;;;5109535;28;20491;-52
2021/04/24 05:54:43;;;;;;;13.18;6.72;;;;;;;;;;5130365;28;20038;-53
2021/04/24 05:57:09;;;;;;;10.45;6.13;;;;;;;;;;5118586;27;20023;-49
2021/04/24 05:59:34;;;;;;;10.50;5.68;;;;;;;;;;5128279;28;20019;-53
2021/04/24 06:01:59;;;;;;;10.70;6.53;;;;;;;;;;5122930;28;20512;-49
2021/04/24 06:04:24;;;;;;;12.00;6.03;;;;;;;;;;5122251;28;20027;-48
2021/04/24 06:06:50;;;;;;;10.25;5.30;;;;;;;;;;5126775;28;20019;-54
2021/04/24 06:09:15;;;;;;;10.32;5.47;;;;;;;;;;5131738;28;20027;-54
2021/04/24 06:11:40;;;;;;;10.48;5.95;;;;;;;;;;5127811;28;20058;-49
2021/04/24 06:14:06;;;;;;;9.93;4.93;;;;;;;;;;5121360;28;20027;-52
2021/04/24 06:16:31;;;;;;;11.25;5.65;;;;;;;;;;5125235;28;20468;-49
2021/04/24 06:18:56;;;;;;;9.85;4.88;;;;;;;;;;5130716;28;20023;-54
2021/04/24 06:21:22;;;;;;;10.82;4.95;;;;;;;;;;5123168;27;20098;-51
2021/04/24 06:23:47;;;;;;;11.35;5.20;;;;;;;;;;5125772;27;20030;-53
2021/04/24 06:26:12;;;;;;;9.52;4.55;;;;;;;;;;5130321;28;20148;-52
2021/04/24 06:28:39;;;;;;;9.77;4.70;;;;;;;;;;5122210;27;20098;-51
2021/04/24 06:31:04;;;;;;;9.35;4.55;;;;;;;;;;5123111;28;20041;-50
2021/04/24 06:33:29;;;;;;;10.52;3.90;;;;;;;;;;5119005;28;20419;-52
2021/04/24 06:35:55;;;;;;;8.73;4.32;;;;;;;;;;5126911;28;20407;-53
2021/04/24 06:38:21;;;;;;;9.55;4.13;;;;;;;;;;5124149;28;20019;-52
2021/04/24 06:40:46;;;;;;;8.23;3.78;;;;;;;;;;5130292;27;20514;-51
2021/04/24 06:43:11;;;;;;;7.45;3.53;;;;;;;;;;5129745;28;20023;-53
2021/04/24 06:45:37;;;;;;;8.75;3.38;;;;;;;;;;5124097;28;20019;-53
2021/04/24 06:48:02;;;;;;;8.15;2.90;;;;;;;;;;5121227;28;20031;-52
2021/04/24 06:50:27;;;;;;;8.90;3.45;;;;;;;;;;5118887;27;20593;-52
2021/04/24 06:52:52;;;;;;;7.43;3.45;;;;;;;;;;5115494;27;20065;-52
2021/04/24 06:55:18;;;;;;;6.72;3.60;;;;;;;;;;5116152;27;20023;-53
2021/04/24 06:57:47;;;;;;;9.30;3.00;;;;;;;;;;5120111;27;20057;-50
2021/04/24 07:00:14;;;;;;;6.68;3.30;;;;;;;;;;5132944;27;20019;-53
2021/04/24 07:02:39;;;;;;;9.38;3.33;;;;;;;;;;5125520;27;20025;-51
2021/04/24 07:05:06;;;;;;;7.05;3.60;;;;;;;;;;5125352;27;20019;-53
2021/04/24 07:07:31;;;;;;;6.25;3.28;;;;;;;;;;5128297;27;20043;-50
2021/04/24 07:09:56;;;;;;;5.03;2.78;;;;;;;;;;5124525;27;20085;-52
2021/04/24 07:12:22;;;;;;;8.60;3.95;;;;;;;;;;5112260;28;20166;-53
2021/04/24 07:14:47;;;;;;;7.75;3.63;;;;;;;;;;5121350;27;20026;-52
2021/04/24 07:17:12;;;;;;;9.73;3.53;;;;;;;;;;5133769;27;20426;-52
2021/04/24 07:19:38;;;;;;;8.55;3.45;;;;;;;;;;5117427;27;20019;-52
2021/04/24 07:22:03;;;;;;;10.00;3.85;;;;;;;;;;5116110;27;20026;-53
2021/04/24 07:24:29;;;;;;;6.95;3.58;;;;;;;;;;5124466;27;20022;-53
2021/04/24 07:26:54;;;;;;;12.07;4.22;;;;;;;;;;5130568;27;20011;-54
2021/04/24 07:29:19;;;;;;;8.88;4.15;;;;;;;;;;5135368;27;20035;-48
2021/04/24 07:31:44;;;;;;;6.45;3.72;;;;;;;;;;5131225;27;20019;-53
2021/04/24 07:34:11;;;;;;;7.63;3.55;;;;;;;;;;5129775;27;20022;-52
2021/04/24 07:36:36;;;;;;;10.70;3.45;;;;;;;;;;5127291;27;20027;-54
2021/04/24 07:39:01;;;;;;;11.27;3.58;;;;;;;;;;5135040;27;20015;-51
2021/04/24 07:41:27;;;;;;;8.15;3.55;;;;;;;;;;5125057;27;20451;-52
2021/04/24 07:43:52;;;;;;;9.38;3.80;;;;;;;;;;5130971;27;20015;-51
2021/04/24 07:46:18;;;;;;;8.02;3.55;;;;;;;;;;5123090;27;20052;-51
2021/04/24 07:48:43;;;;;;;9.80;3.85;;;;;;;;;;5118761;27;20026;-50
2021/04/24 07:51:08;;;;;;;9.48;4.60;;;;;;;;;;5127891;27;20118;-53
2021/04/24 07:53:33;;;;;;;10.50;4.15;;;;;;;;;;5126390;27;20477;-51
2021/04/24 07:55:59;;;;;;;7.68;3.42;;;;;;;;;;5134273;27;20451;-56
2021/04/24 07:58:24;;;;;;;8.68;3.85;;;;;;;;;;5133913;27;20016;-51
2021/04/24 08:00:49;;;;;;;7.43;4.25;;;;;;;;;;5122935;27;20016;-52
2021/04/24 08:03:15;;;;;;;8.80;4.63;;;;;;;;;;5111284;28;20020;-49
2021/04/24 08:05:40;;;;;;;7.45;3.70;;;;;;;;;;5117528;27;20563;-50
2021/04/24 08:08:05;;;;;;;9.32;3.92;;;;;;;;;;5117070;27;20031;-51
2021/04/24 08:10:31;;;;;;;9.30;3.67;;;;;;;;;;5131006;27;20540;-49
2021/04/24 08:13:02;;;;;;;10.10;3.55;;;;;;;;;;5131345;27;20090;-54
2021/04/24 08:15:28;;;;;;;9.05;3.50;;;;;;;;;;5126232;27;20015;-50
2021/04/24 08:17:53;;;;;;;12.32;3.75;;;;;;;;;;5121520;27;20028;-48
2021/04/24 08:20:18;;;;;;;7.15;3.83;;;;;;;;;;5126612;27;20015;-52
2021/04/24 08:22:44;;;;;;;9.02;3.03;;;;;;;;;;5131365;27;20012;-53
2021/04/24 08:25:09;;;;;;;6.60;3.30;;;;;;;;;;5133836;27;20023;-50
2021/04/24 08:27:35;;;;;;;7.45;3.33;;;;;;;;;;5129208;27;20095;-53
2021/04/24 08:30:00;;;;;;;5.75;3.58;;;;;;;;;;5128065;27;20110;-51
2021/04/24 08:32:25;;;;;;;7.38;3.80;;;;;;;;;;5121665;27;20016;-56
2021/04/24 08:34:51;;;;;;;10.98;3.92;;;;;;;;;;5121287;27;20049;-54
2021/04/24 08:37:16;;;;;;;5.28;3.15;;;;;;;;;;5124959;27;20070;-53
2021/04/24 08:39:41;;;;;;;9.75;3.92;;;;;;;;;;5120126;27;20347;-54
2021/04/24 08:42:07;;;;;;;8.35;3.88;;;;;;;;;;5118383;27;20019;-53
2021/04/24 08:44:32;;;;;;;8.63;4.00;;;;;;;;;;5120861;27;20561;-54
2021/04/24 08:46:58;;;;;;;9.93;4.53;;;;;;;;;;5121881;27;20490;-51
2021/04/24 08:49:24;;;;;;;10.90;4.13;;;;;;;;;;5124310;27;20069;-50
2021/04/24 08:51:50;;;;;;;7.55;4.00;;;;;;;;;;5117875;27;20049;-51
2021/04/24 08:54:15;;;;;;;6.82;3.85;;;;;;;;;;5123152;27;20024;-54
2021/04/24 08:56:41;;;;;;;8.45;4.40;;;;;;;;;;5125041;27;20073;-52
2021/04/24 08:59:07;;;;;;;7.05;2.80;;;;;;;;;;5121300;27;20465;-50
2021/04/24 09:01:32;;;;;;;9.65;4.03;;;;;;;;;;5119090;27;20012;-52
2021/04/24 09:03:58;;;;;;;7.55;3.50;;;;;;;;;;5127349;27;20044;-51
2021/04/24 09:06:23;;;;;;;9.98;3.35;;;;;;;;;;5128821;27;20027;-50
2021/04/24 09:08:53;;;;;;;6.43;3.88;;;;;;;;;;5121006;27;20022;-50
2021/04/24 09:11:18;;;;;;;8.20;4.15;;;;;;;;;;5124069;27;20028;-53
2021/04/24 09:13:43;;;;;;;8.55;3.55;;;;;;;;;;5119832;27;20026;-51
2021/04/24 09:16:21;;;;;;;7.82;3.50;;;;;;;;;;5119168;27;20026;-49
2021/04/24 09:18:46;;;;;;;5.10;3.25;;;;;;;;;;5114129;27;20408;-54
2021/04/24 09:21:13;;;;;;;6.63;3.42;;;;;;;;;;5125491;27;20113;-52
2021/04/24 09:23:39;;;;;;;8.15;3.70;;;;;;;;;;5127984;27;20019;-50
2021/04/24 09:26:06;;;;;;;6.50;3.50;;;;;;;;;;5132874;27;20027;-54
2021/04/24 09:28:31;;;;;;;7.22;4.28;;;;;;;;;;5129040;27;20517;-51
2021/04/24 09:31:00;;;;;;;7.72;3.10;;;;;;;;;;5124807;27;20027;-50
2021/04/24 09:33:33;;;;;;;7.47;3.47;;;;;;;;;;5127584;27;20041;-50
2021/04/24 09:35:58;;;;;;;10.07;3.80;;;;;;;;;;5123381;27;20505;-51
2021/04/24 09:38:30;;;;;;;7.97;3.78;;;;;;;;;;5117193;28;20039;-51
2021/04/24 09:41:02;;;;;;;6.72;3.53;;;;;;;;;;5121962;28;20019;-51
2021/04/24 09:43:27;;;;;;;7.72;3.97;;;;;;;;;;5116012;28;20371;-53
2021/04/24 09:45:53;;;;;;;7.45;3.50;;;;;;;;;;5112580;28;20049;-52
2021/04/24 09:48:21;;;;;;;7.53;3.15;;;;;;;;;;5117332;28;20015;-48
2021/04/24 09:50:47;;;;;;;10.88;2.67;;;;;;;;;;5125416;27;20072;-50
2021/04/24 09:53:30;;;;;;;5.88;4.35;;;;;;;;;;5130428;27;20376;-51
2021/04/24 09:55:55;;;;;;;8.95;3.70;;;;;;;;;;5132158;27;20488;-49
2021/04/24 09:58:23;;;;;;;8.38;4.32;;;;;;;;;;5132414;28;20106;-48
2021/04/24 10:00:49;;;;;;;7.35;3.63;;;;;;;;;;5128420;28;20120;-50
2021/04/24 10:03:32;;;;;;;7.88;4.43;;;;;;;;;;5129948;28;20094;-51
2021/04/24 10:06:17;;;;;;;10.60;4.50;;;;;;;;;;5123585;28;20079;-51
2021/04/24 10:08:43;;;;;;;7.97;3.80;;;;;;;;;;5131088;28;20027;-53
2021/04/24 10:11:08;;;;;;;7.25;3.42;;;;;;;;;;5130495;28;20031;-49
2021/04/24 10:13:39;;;;;;;7.03;4.15;;;;;;;;;;5126487;28;20011;-53
2021/04/24 10:16:06;;;;;;;8.10;4.00;;;;;;;;;;5132034;28;20027;-53
2021/04/24 10:18:31;;;;;;;8.00;3.90;;;;;;;;;;5122778;27;20023;-51
2021/04/24 10:20:57;;;;;;;8.20;3.83;;;;;;;;;;5130583;28;20027;-51
2021/04/24 10:23:23;;;;;;;8.40;3.55;;;;;;;;;;5128534;27;20019;-51
2021/04/24 10:25:49;;;;;;;9.05;4.05;;;;;;;;;;5123894;27;20398;-51
2021/04/24 10:28:15;;;;;;;8.02;4.57;;;;;;;;;;5120298;27;20039;-49
2021/04/24 10:30:40;;;;;;;9.13;4.57;;;;;;;;;;5120605;27;20015;-53
2021/04/24 10:33:06;;;;;;;10.60;4.85;;;;;;;;;;5123675;27;20025;-50
2021/04/24 10:35:32;;;;;;;7.13;3.70;;;;;;;;;;5118371;27;20433;-52
2021/04/24 10:37:57;;;;;;;10.13;4.70;;;;;;;;;;5120477;27;20015;-52
2021/04/24 10:40:23;;;;;;;6.88;4.82;;;;;;;;;;5125557;27;20031;-51
2021/04/24 10:42:54;;;;;;;9.93;4.53;;;;;;;;;;5129575;27;20015;-48
2021/04/24 10:45:34;;;;;;;7.28;4.65;;;;;;;;;;5135846;27;20061;-52
2021/04/24 10:48:00;;;;;;;8.60;5.35;;;;;;;;;;5127747;27;20030;-52
2021/04/24 10:50:43;;;;;;;8.70;4.88;;;;;;;;;;5130910;27;20027;-52
2021/04/24 10:53:18;;;;;;;8.30;5.00;;;;;;;;;;5132919;27;20035;-53
2021/04/24 10:55:44;;;;;;;8.52;4.55;;;;;;;;;;5129396;27;20129;-50
2021/04/24 10:58:16;;;;;;;7.43;4.22;;;;;;;;;;5130563;27;20072;-50
2021/04/24 11:00:42;;;;;;;7.97;4.88;;;;;;;;;;5134435;27;20049;-52
2021/04/24 11:03:07;;;;;;;7.35;4.85;;;;;;;;;;5132828;27;20042;-53
2021/04/24 11:05:34;;;;;;;8.40;4.70;;;;;;;;;;5134355;27;20019;-50
2021/04/24 11:08:08;;;;;;;7.25;4.63;;;;;;;;;;5125218;27;20019;-51
2021/04/24 11:10:44;;;;;;;9.93;5.32;;;;;;;;;;5129590;27;20025;-52
2021/04/24 11:13:13;;;;;;;9.80;4.90;;;;;;;;;;5124547;27;20024;-54
2021/04/24 11:15:39;;;;;;;8.73;5.80;;;;;;;;;;5134847;27;20474;-47
2021/04/24 11:18:10;;;;;;;9.25;5.60;;;;;;;;;;5134336;27;20019;-53
2021/04/24 11:20:50;;;;;;;8.02;5.15;;;;;;;;;;5125832;27;20034;-53
2021/04/24 11:23:35;;;;;;;9.07;4.78;;;;;;;;;;5124028;27;20015;-52
2021/04/24 11:26:22;;;;;;;10.40;5.43;;;;;;;;;;5122280;27;20027;-47
2021/04/24 11:28:56;;;;;;;9.10;5.65;;;;;;;;;;5127231;27;20495;-55
2021/04/24 11:31:40;;;;;;;9.83;5.90;;;;;;;;;;5120605;27;20030;-54
2021/04/24 11:34:21;;;;;;;14.20;6.43;;;;;;;;;;5130754;27;20027;-49
2021/04/24 11:36:46;;;;;;;9.18;6.32;;;;;;;;;;5127117;27;20027;-53
2021/04/24 11:39:11;;;;;;;11.00;6.65;;;;;;;;;;5128936;27;20023;-54
2021/04/24 11:41:40;;;;;;;10.15;7.50;;;;;;;;;;5130732;27;20019;-49
2021/04/24 11:44:18;;;;;;;6.93;4.40;;;;;;;;;;5132867;27;20026;-48
2021/04/24 11:46:43;;;;;;;8.63;5.63;;;;;;;;;;5127386;27;20019;-51
2021/04/24 11:49:10;;;;;;;9.63;6.28;;;;;;;;;;5127242;27;20558;-52
2021/04/24 11:51:43;;;;;;;9.77;6.03;;;;;;;;;;5120483;27;20049;-52
2021/04/24 11:54:12;;;;;;;9.90;6.28;;;;;;;;;;5113900;28;20067;-51
2021/04/24 11:56:37;;;;;;;8.73;5.97;;;;;;;;;;5120756;27;20015;-47
2021/04/24 11:59:04;;;;;;;10.23;6.15;;;;;;;;;;5131061;27;20049;-52
2021/04/24 12:01:29;;;;;;;6.85;4.85;;;;;;;;;;5128212;27;20016;-51
2021/04/24 12:03:54;;;;;;;10.68;7.07;;;;;;;;;;5132597;27;20500;-50
2021/04/24 12:06:33;;;;;;;9.32;5.97;;;;;;;;;;5117819;27;20027;-53
2021/04/24 12:09:03;;;;;;;10.05;6.85;;;;;;;;;;5127461;27;20022;-50
2021/04/24 12:11:28;;;;;;;9.82;6.70;;;;;;;;;;5119716;27;20344;-56
2021/04/24 12:13:54;;;;;;;10.38;7.30;;;;;;;;;;5134280;27;20098;-49
2021/04/24 12:16:19;;;;;;;7.75;5.65;;;;;;;;;;5133291;27;20042;-52
2021/04/24 12:18:44;;;;;;;12.32;6.40;;;;;;;;;;5134312;27;20011;-53
2021/04/24 12:21:10;;;;;;;10.15;5.68;;;;;;;;;;5129599;27;20047;-47
2021/04/24 12:23:35;;;;;;;10.40;5.50;;;;;;;;;;5132233;27;20015;-51
2021/04/24 12:26:00;;;;;;;11.50;7.10;;;;;;;;;;5126532;27;20106;-55
2021/04/24 12:28:27;;;;;;;8.60;5.75;;;;;;;;;;5130302;27;20030;-52
2021/04/24 12:30:54;;;;;;;10.07;5.70;;;;;;;;;;5130165;27;20019;-53
2021/04/24 12:33:20;;;;;;;5.70;3.42;;;;;;;;;;5130997;27;20015;-54
2021/04/24 12:35:55;;;;;;;10.88;6.18;;;;;;;;;;5132458;27;20019;-53
2021/04/24 12:38:21;;;;;;;10.02;6.15;;;;;;;;;;5133737;27;20375;-52
2021/04/24 12:40:48;;;;;;;9.13;6.10;;;;;;;;;;5127811;27;20031;-55
2021/04/24 12:43:19;;;;;;;12.27;6.90;;;;;;;;;;5118567;27;20083;-54
2021/04/24 12:45:45;;;;;;;7.35;6.03;;;;;;;;;;5126497;27;20023;-52
2021/04/24 12:48:13;;;;;;;13.80;6.63;;;;;;;;;;5133397;27;20032;-54
2021/04/24 12:50:40;;;;;;;12.02;6.50;;;;;;;;;;5131768;27;20019;-47
2021/04/24 12:53:06;;;;;;;11.40;7.38;;;;;;;;;;5130618;27;20383;-54
2021/04/24 12:55:36;;;;;;;8.77;5.05;;;;;;;;;;5133099;27;20019;-54
2021/04/24 12:58:05;;;;;;;11.70;7.85;;;;;;;;;;5133637;27;20106;-51
2021/04/24 13:00:41;;;;;;;10.75;8.40;;;;;;;;;;5130592;27;20063;-53
2021/04/24 13:03:26;;;;;;;9.98;7.20;;;;;;;;;;5125863;27;20026;-55
2021/04/24 13:05:52;;;;;;;12.35;8.00;;;;;;;;;;5133718;27;20023;-54
2021/04/24 13:08:17;;;;;;;11.52;6.32;;;;;;;;;;5123289;27;20499;-51
2021/04/24 13:10:43;;;;;;;9.30;6.30;;;;;;;;;;5117030;27;20020;-52
2021/04/24 13:13:08;;;;;;;11.63;8.27;;;;;;;;;;5126244;27;20020;-53
2021/04/24 13:15:41;;;;;;;12.10;8.15;;;;;;;;;;5112837;28;20029;-54
2021/04/24 13:18:26;;;;;;;11.13;7.40;;;;;;;;;;5124715;27;20007;-52
2021/04/24 13:20:51;;;;;;;;;;;;;;;;;;5126751;27;20015;-52
2021/04/24 13:23:17;;;;;;;11.13;7.85;;;;;;;;;;5130422;27;19914;-49
2021/04/24 13:25:42;;;;;;;8.55;5.35;;;;;;;;;;5132257;27;20027;-55
2021/04/24 13:28:08;;;;;;;9.98;5.90;;;;;;;;;;5132571;27;20022;-54
2021/04/24 13:30:40;;;;;;;10.15;6.45;;;;;;;;;;5125605;27;20523;-55
2021/04/24 13:33:06;;;;;;;9.75;5.90;;;;;;;;;;5109628;28;20390;-52
2021/04/24 13:35:43;;;;;;;9.70;6.88;;;;;;;;;;5126176;27;20023;-54
2021/04/24 13:38:09;;;;;;;12.75;8.75;;;;;;;;;;5115397;28;20350;-54
2021/04/24 13:40:34;;;;;;;13.88;8.90;;;;;;;;;;5127002;27;20022;-51
2021/04/24 13:42:59;;;;;;;10.60;7.40;;;;;;;;;;5125873;28;20021;-51
2021/04/24 13:45:26;;;;;;;10.70;6.82;;;;;;;;;;5125547;28;20020;-48
2021/04/24 13:47:51;;;;;;;10.10;6.47;;;;;;;;;;5132900;27;20050;-51
2021/04/24 13:50:17;;;;;;;10.02;4.70;;;;;;;;;;5130319;28;20043;-53
2021/04/24 13:52:42;;;;;;;9.02;6.68;;;;;;;;;;5118569;27;20495;-54
2021/04/24 13:55:08;;;;;;;4.88;2.95;;;;;;;;;;5112268;28;20030;-54
2021/04/24 13:57:33;;;;;;;12.93;7.15;;;;;;;;;;5117986;27;20038;-51
2021/04/24 13:59:58;;;;;;;11.85;7.57;;;;;;;;;;5125603;27;20050;-54
2021/04/24 14:02:24;;;;;;;8.75;6.65;;;;;;;;;;5129136;27;20394;-53
2021/04/24 14:04:49;;;;;;;9.55;6.50;;;;;;;;;;5123089;27;20468;-53
2021/04/24 14:07:14;;;;;;;8.50;5.90;;;;;;;;;;5131437;27;20083;-52
2021/04/24 14:09:39;;;;;;;8.02;4.72;;;;;;;;;;5124517;27;20031;-52
2021/04/24 14:12:05;;;;;;;5.72;4.65;;;;;;;;;;5122645;27;20035;-51
2021/04/24 14:14:30;;;;;;;10.07;7.28;;;;;;;;;;5136096;27;20046;-53
2021/04/24 14:16:56;;;;;;;10.60;7.40;;;;;;;;;;5129378;27;20027;-52
2021/04/24 14:19:21;;;;;;;10.50;8.05;;;;;;;;;;5123815;27;20073;-54
2021/04/24 14:21:50;;;;;;;6.38;4.43;;;;;;;;;;5118417;27;20027;-52
2021/04/24 14:24:16;;;;;;;9.43;6.78;;;;;;;;;;5121381;27;20023;-54
2021/04/24 14:26:41;;;;;;;8.38;6.85;;;;;;;;;;5119850;27;20055;-57
2021/04/24 14:29:06;;;;;;;8.65;5.75;;;;;;;;;;5129527;27;20023;-55
2021/04/24 14:31:31;;;;;;;9.05;6.70;;;;;;;;;;5124632;27;20023;-51